Bituruna, Brazil
Current Conditions -  °F | °C
As of 11:00 AM on Thursday 27 Nov 2014 (Local Time) from SBCH Reporting Station
Few Clouds Few Clouds  
Wind Chill: 81°   Ceiling: Unl
Heat Index: 83°   Visibility: 6mi
Dew Point: 68°   Wind: 8mph
Humidity: 65%   Direction: 30°NNE
Pressure: 29.97"   Gusts: NA
Location:  26.16°S, 51.55°W
Report Text: SBCH 271300Z 03007KT 9999 FEW035 27/20 Q1015
Loading
Personal Weather Stations






























Interactive Weather Map New forecast layout! Learn more

10-Day Weather Forecast

Advertisements
Track Severe Weather on mobile